Air Resources Laboratory banner image
Air Resources Laboratory web site National Oceanic and Atmospheric Administration (NOAA)

wa metar


KALW 191553Z 28005KT 10SM CLR M07/M14 A3009 RMK AO2 SLP205 T10671139=
KAWO 191556Z AUTO 02013KT 10SM CLR M04/M11 A3020 RMK AO2 SLP233 T10441106
 FZRANO=
KBFI 191553Z 35006KT 10SM SCT060 M01/M08 A3020 RMK AO2 SLP225 T10061078=
KBLI 191553Z 03013G23KT 10SM CLR M04/M15 A3023 RMK AO2 SLP247 T10391150=
KBVS 191555Z AUTO 02006KT 10SM CLR M04/M11 A3022 RMK A01=
KCLM 191553Z AUTO 19003KT 10SM CLR M05/M09 A3023 RMK AO2 SLP242 T10501094=
KDEW 191553Z AUTO 05007KT 10SM CLR M13/M20 A3003 RMK AO2 SLP209 T11281200=
KEAT 191555Z AUTO 00000KT 10SM CLR M08/M13 A3013 RMK AO2 SLP220 T10781128=
KELN 191553Z AUTO 16004KT 10SM CLR M04/M16 A3006 RMK AO2 SLP201 T10441156 TSNO=
KEPH 191553Z AUTO 02014KT 10SM CLR M06/M17 A3011 RMK AO2 SLP214 T10611167=
KFHR 191553Z AUTO 01010KT 10SM CLR M02/M14 A3024 RMK AO2 SLP242 T10171139=
KGEG 191553Z 03012KT 10SM FEW080 SCT110 BKN160 M13/M19 A2999 RMK AO2 SLP195
 T11281189 $=
KGRF 191558Z AUTO 35010G14KT 10SM CLR M01/M08 A3017 RMK AO2 SLP224 T10151081 $=
KHQM 191553Z AUTO 03004KT 10SM BKN045 M01/M07 A3018 RMK AO2 SLP224 T10061072=
KKLS 191556Z AUTO 36004KT 10SM OVC043 M01/M04 A3017 RMK AO2 SNB03E13 SLP223
 P0000 T10061044 FZRANO=
KMWH 191552Z 01005KT 10SM CLR M08/M12 A3012 RMK AO2 SLP218 T10781117 $=
KNOW 191555Z AUTO 16007KT 10SM CLR M01/M07 A3026 RMK AO2 T10141075=
KNUW 191556Z AUTO 08005KT 10SM CLR M02/M11 A3026 RMK AO2 SLP245 T10171106 $=
KOLM 191554Z 04005KT 10SM SCT080 M01/M10 A3018 RMK AO2 SLP223 T10111100=
KOMK 191553Z AUTO 35013KT 10SM CLR M08/M14 A3015 RMK AO2 SLP231 T10781144=
KORS 191555Z AUTO VRB05G19KT 10SM CLR M02/M13 A3024 RMK AO2=
KPAE 191553Z 32005KT 10SM CLR M03/M12 A3017 RMK AO2 SLP223 T10281117=
KPSC 191553Z 35003KT 10SM CLR M06/M13 A3019 RMK AO2 SLP228 T10561133=
KPUW 191553Z AUTO 24010KT 2SM -SN BR SCT025 BKN036 OVC049 M10/M11 A2993 RMK AO2
 SLP174 P0000 T11001111=
KRNT 191553Z 33011KT 10SM CLR 00/M09 A3019 RMK AO2 SLP228 T00001094=
KSEA 191553Z 34011KT 10SM FEW045 FEW080 M02/M09 A3017 RMK AO2 SLP227 T10171089=
KSFF 191553Z VRB03KT 10SM OVC080 M11/M19 A3003 RMK AO2 SLP200 T11061189=
KSHN 191553Z AUTO 00000KT 10SM OVC070 M04/M06 A3016 RMK AO2 SLP219 T10391056=
KTCM 191558Z AUTO 02010KT 10SM FEW080 M02/M07 A3017 RMK AO2 SLP224 T10161075 $=
KTIW 191553Z 35017G25KT 10SM FEW060 BKN080 M02/M10 A3018 RMK AO2 SLP224
 T10171100=
KUIL 191553Z AUTO 02003KT 10SM CLR M03/M11 A3020 RMK AO2 SLP230 T10331111=
KVUO 191553Z AUTO VRB05KT 9SM -SN OVC040 00/M03 A3015 RMK AO2 SNB48 SLP211
 P0000 T00001028=
KYKM 191553Z 00000KT 10SM SCT070 BKN090 M03/M14 A3014 RMK AO2 SLP219 T10281144=